Terminal Aerodrome Forecast
Issued by NWS

Home | Current Version | Previous Version | Text Only | Print | Product List | Glossary On
Versions: 1 2 3 4 5 6 7 8 9 10 11 12 13 14 15 16 17 18 19 20 21 22
000
FTUS46 KSEW 251100
TAFHQM
TAF
KHQM 251120Z 2512/2612 29004KT P6SM OVC015
      TEMPO 2513/2517 3SM -DZ BR OVC012
     FM251700 24008KT P6SM OVC015
     FM260600 27004KT 6SM BR OVC007=

USA.gov is the U.S. government's official web portal to all federal, state and local government web resources and services.